• Join FlightAware (Why Join?)
  • Login
  • US Flag 
09:12AM EST


 

Airport Tracker/Info


-or-


 

Live Flight TrackerFlight Track Log ✈ EJA930 ✈ 29-Jun-2013 ✈ KLIT - KEGE

Flight Track Log - Related Links

Times and Time Zones

All times are in EDT time to prevent confusion due to time zone crossing. See the EJA930 flight status page for this flight to view local times or setup timezone preferences in your user account.

Time Position Orientation Groundspeed Altitude Reporting Facility
EDT Latitude Longitude Course Direction KTS MPH feet Rate Location/Type
11:01AM 34.7658 -92.2514 272° West 225 259 2,300  Level Kansas City Center
11:02AM 34.7681 -92.3278 272° West 224 258 5,200 2,880 Climbing Kansas City Center
11:03AM 34.7814 -92.4128 281° West 243 280 8,300 2,580 Climbing Kansas City Center
11:04AM 34.8158 -92.4958 297° West 263 303 10,600 1,560 Climbing Kansas City Center
11:05AM 34.8672 -92.6114 298° West 303 349 11,600 1,200 Climbing Kansas City Center
11:06AM 34.9119 -92.7197 297° West 332 382 13,100 1,260 Climbing Memphis Center
11:07AM 34.9581 -92.8275 298° West 351 404 14,300 1,200 Climbing Memphis Center
11:08AM 35.0036 -92.9378 297° West 351 404 15,500 1,200 Climbing Memphis Center
11:09AM 35.0514 -93.0508 297° West 362 417 16,800 1,020 Climbing Memphis Center
11:10AM 35.0989 -93.1642 297° West 367 422 17,600 840 Climbing Memphis Center
11:11AM 35.1422 -93.2747 296° West 381 438 18,500 1,140 Climbing Memphis Center
11:12AM 35.1978 -93.3986 299° West 387 445 19,900 1,260 Climbing Memphis Center
11:13AM 35.2469 -93.5225 296° West 392 451 21,100 1,080 Climbing Memphis Center
11:14AM 35.2919 -93.6283 298° West 392 451 22,100 1,140 Climbing Memphis Center
11:15AM 35.3408 -93.7525 296° West 392 451 23,400 1,320 Climbing Memphis Center
11:16AM 35.3917 -93.8742 297° West 392 451 24,800 1,320 Climbing Memphis Center
11:17AM 35.4444 -94.0014 297° West 402 463 26,100 1,260 Climbing Memphis Center
11:18AM 35.4969 -94.1311 296° West 412 474 27,400 1,260 Climbing Memphis Center
11:19AM 35.5492 -94.2586 297° West 417 480 28,700 1,320 Climbing Memphis Center
11:20AM 35.6011 -94.3939 295° West 423 487 30,100 1,500 Climbing Memphis Center
11:21AM 35.6597 -94.5192 300° West 428 493 31,800 2,100 Climbing Memphis Center
11:22AM 35.7203 -94.6400 302° West 423 487 34,300 2,220 Climbing Memphis Center
11:23AM 35.7767 -94.7556 301° West 411 473 36,300 1,860 Climbing Memphis Center
11:24AM 35.8286 -94.8733 299° West 404 465 38,100 1,680 Climbing Memphis Center
11:24AM 35.8614 -94.9486 298° West 395 455 39,000 1,140 Climbing Kansas City Center
11:25AM 35.9086 -95.0717 295° West 396 456 40,000 480 Climbing Kansas City Center
11:26AM 35.9606 -95.2022 296° West 414 476 40,000  Level Kansas City Center
11:27AM 36.0139 -95.3417 295° West 438 504 40,000  Level Kansas City Center
11:28AM 36.0756 -95.5064 295° West 451 519 40,000  Level Kansas City Center
11:29AM 36.1300 -95.6475 296° West 455 524 40,000  Level Kansas City Center
11:31AM 36.1883 -95.8008 295° West 455 524 40,000  Level Kansas City Center
11:32AM 36.2422 -95.9428 295° West 453 521 40,000  Level Kansas City Center
11:33AM 36.2964 -96.0861 295° West 455 524 40,000  Level Kansas City Center
11:34AM 36.3506 -96.2300 295° West 458 527 40,000  Level Kansas City Center
11:35AM 36.4022 -96.3736 294° West 455 524 40,000  Level Kansas City Center
11:36AM 36.4436 -96.5239 289° West 458 527 40,000  Level Kansas City Center
11:37AM 36.4850 -96.6744 289° West 459 528 40,000  Level Kansas City Center
11:38AM 36.5275 -96.8319 289° West 458 527 40,000  Level Kansas City Center
11:39AM 36.5683 -96.9819 289° West 460 529 40,000 300 Level Kansas City Center
11:40AM 36.6172 -97.1636 289° West 463 533 40,700 480 Climbing Kansas City Center
11:41AM 36.6569 -97.3125 288° West 460 529 41,000 120 Climbing Kansas City Center
11:42AM 36.6942 -97.4539 288° West 458 527 41,000  Level Kansas City Center
11:43AM 36.7347 -97.6069 288° West 461 531 41,000  Level Kansas City Center
11:44AM 36.7792 -97.7794 288° West 465 535 41,000  Level Kansas City Center
11:45AM 36.8422 -97.9350 297° West 464 534 41,000  Level Kansas City Center
11:46AM 36.9022 -98.0769 298° West 462 532 41,000  Level Kansas City Center
11:47AM 36.9622 -98.2192 298° West 462 532 41,000  Level Kansas City Center
11:48AM 37.0214 -98.3606 298° West 459 528 41,000  Level Kansas City Center
11:49AM 37.0819 -98.5031 298° West 461 531 41,000  Level Kansas City Center
11:50AM 37.1397 -98.6425 297° West 454 522 41,000  Level Kansas City Center
11:51AM 37.1994 -98.7872 297° West 461 531 41,000  Level Kansas City Center
11:52AM 37.2686 -98.9547 297° West 454 522 41,000  Level Kansas City Center
11:53AM 37.3261 -99.0972 297° West 454 522 41,000  Level Kansas City Center
11:54AM 37.3850 -99.2381 298° West 454 522 41,000  Level Kansas City Center
11:55AM 37.4428 -99.3811 297° West 457 526 41,000  Level Kansas City Center
11:56AM 37.5075 -99.5414 297° West 455 524 41,000  Level Kansas City Center
11:57AM 37.5619 -99.6778 297° West 456 525 41,000  Level Kansas City Center
11:58AM 37.6267 -99.8378 297° West 459 528 41,000  Level Kansas City Center
11:59AM 37.6814 -99.9742 297° West 457 526 41,000  Level Kansas City Center
12:01PM 37.7456 -100.1342 297° West 458 527 41,000  Level Kansas City Center
12:02PM 37.8000 -100.2706 297° West 457 526 41,000 -60 Level Kansas City Center
12:03PM 37.8644 -100.4319 297° West 462 532 40,900 -420 Descending Kansas City Center
12:04PM 37.9183 -100.5697 296° West 460 529 40,200 -480 Descending Kansas City Center
12:05PM 37.9817 -100.7289 297° West 458 527 40,000 -120 Descending Kansas City Center
12:06PM 38.0353 -100.8689 296° West 462 532 40,000  Level Kansas City Center
12:07PM 38.0975 -101.0342 296° West 467 537 40,000  Level Kansas City Center
12:08PM 38.1519 -101.1744 296° West 465 535 40,000  Level Kansas City Center
12:08PM 38.1869 -101.2686 295° West 467 537 40,000  Level Denver Center
12:09PM 38.2414 -101.4100 296° West 467 537 40,000  Level Denver Center
12:10PM 38.3053 -101.5756 296° West 466 536 40,000  Level Denver Center
12:11PM 38.3592 -101.7194 296° West 471 542 40,000  Level Denver Center
12:12PM 38.4242 -101.8844 297° West 468 539 40,000  Level Denver Center
12:14PM 38.4878 -101.9903 308° West 470 541 40,000 -60 Level Denver Center
12:15PM 38.5864 -102.1597 307° West 468 539 39,900 -840 Descending Denver Center
12:16PM 38.6847 -102.3306 306° West 468 539 38,100 -2,220 Descending Denver Center
12:17PM 38.7572 -102.4572 306° West 462 532 35,300 -2,040 Descending Denver Center
12:18PM 38.8439 -102.6072 307° West 470 541 34,000 -660 Descending Denver Center
12:19PM 38.9258 -102.7528 306° West 488 562 34,000  Level Denver Center
12:20PM 39.0067 -102.8936 306° West 490 564 34,000  Level Denver Center
12:21PM 39.0869 -103.0358 306° West 491 565 34,000  Level Denver Center
12:22PM 39.1656 -103.1786 305° West 492 566 34,000  Level Denver Center
12:23PM 39.2450 -103.3206 306° West 489 563 34,000  Level Denver Center
12:24PM 39.3094 -103.4350 306° West 493 567 34,000  Level Denver Center
12:25PM 39.4203 -103.6353 306° West 492 566 34,000  Level Denver Center
12:26PM 39.5000 -103.7794 306° West 498 573 34,000 -180 Level Denver Center
12:27PM 39.5642 -103.9392 298° West 502 578 33,700 -960 Descending Denver Center
12:28PM 39.6408 -104.0856 304° West 494 568 32,100 -1,560 Descending Denver Center
12:29PM 39.7244 -104.2283 307° West 499 574 30,500 -1,020 Descending Denver Center
12:30PM 39.8225 -104.3958 307° West 489 563 30,000 -300 Descending Denver Center
12:31PM 39.9014 -104.5389 306° West 491 565 30,000  Level Denver Center
12:32PM 39.9631 -104.6922 298° West 483 556 30,000  Level Denver Center
12:33PM 40.0108 -104.8628 290° West 488 562 30,000  Level Denver Center
12:34PM 40.0467 -105.0686 283° West 489 563 30,000 -600 Level Denver Center
12:35PM 40.0544 -105.2469 273° West 492 566 28,800 -1,560 Descending Denver Center
12:36PM 40.0558 -105.4247 271° West 492 566 26,800 -2,040 Descending Denver Center
12:38PM 40.0400 -105.5958 263° West 478 550 24,700 -1,680 Descending Denver Center
12:39PM 40.0356 -105.7594 268° West 390 449 23,400 -1,680 Descending Denver Center
12:40PM 40.0267 -105.8731 264° West 349 402 21,300 -2,340 Descending Denver Center
12:41PM 40.0211 -106.0242 267° West 348 400 18,100 -2,580 Descending Denver Center
12:42PM 40.0153 -106.1453 266° West 341 392 15,600 -1,980 Descending Denver Center
12:43PM 40.0114 -106.2808 268° West 311 358 14,000 -780 Descending Denver Center
12:44PM 39.9792 -106.3603 242° Southwest 276 318 14,000  Level Denver Center
12:45PM 39.9414 -106.4381 238° Southwest 261 300 14,000  Level Denver Center
12:46PM 39.8767 -106.4853 209° Southwest 265 305 14,000  Level Denver Center
12:47PM 39.7956 -106.5289 202° Southwest 263 303 14,000 -300 Level Denver Center
12:48PM 39.7408 -106.5547 200° South 261 300 13,400 -780 Descending Denver Center
12:49PM 39.6864 -106.6153 221° Southwest 250 288 12,500 -1,380 Descending Denver Center
12:50PM 39.6642 -106.7144 254° West 240 276 10,600 -1,860 Descending Denver Center
12:51PM 39.6550 -106.8039 262° West 215 247 8,700 -1,680 Descending Denver Center
12:52PM 39.6489 -106.8586 262° West 177 204 7,200 -1,080 Descending Denver Center
12:53PM 39.6428 -106.9133 262° West 159 183 6,500 -720 Descending Denver Center